createdAt,value
2019-03-21T00:02:01.033Z,4.85
2019-03-21T00:04:29.955Z,4.60
2019-03-21T00:06:58.855Z,5.05
2019-03-21T00:09:27.799Z,5.12
2019-03-21T00:12:00.596Z,4.55
2019-03-21T00:14:48.701Z,5.00
2019-03-21T00:17:19.238Z,4.87
2019-03-21T00:19:48.564Z,4.72
2019-03-21T00:22:17.498Z,4.95
2019-03-21T00:24:47.427Z,4.33
2019-03-21T00:27:16.419Z,4.70
2019-03-21T00:29:45.317Z,5.10
2019-03-21T00:32:14.239Z,4.90
2019-03-21T00:34:43.143Z,4.70
2019-03-21T00:37:12.409Z,4.40
2019-03-21T00:39:41.373Z,4.80
2019-03-21T00:42:11.181Z,4.40
2019-03-21T00:44:40.075Z,4.95
2019-03-21T00:47:09.026Z,4.65
2019-03-21T00:49:37.921Z,5.17
2019-03-21T00:52:06.855Z,4.95
2019-03-21T00:54:35.706Z,4.83
2019-03-21T00:57:04.540Z,4.70
2019-03-21T00:59:33.449Z,4.80
2019-03-21T01:02:02.298Z,4.50
2019-03-21T01:04:31.238Z,3.90
2019-03-21T01:07:00.071Z,4.45
2019-03-21T01:09:28.906Z,4.15
2019-03-21T01:11:57.819Z,3.92
2019-03-21T01:14:30.080Z,4.22
2019-03-21T01:16:57.200Z,4.33
2019-03-21T01:19:26.055Z,4.30
2019-03-21T01:21:55.035Z,3.72
2019-03-21T01:24:23.905Z,4.15
2019-03-21T01:26:52.743Z,4.03
2019-03-21T01:29:21.598Z,4.20
2019-03-21T01:31:50.445Z,4.62
2019-03-21T01:34:19.353Z,4.33
2019-03-21T01:36:48.279Z,4.15
2019-03-21T01:39:17.260Z,4.37
2019-03-21T01:41:46.114Z,4.00
2019-03-21T01:44:15.017Z,4.55
2019-03-21T01:46:43.877Z,4.10
2019-03-21T01:49:12.766Z,4.58
2019-03-21T01:51:41.688Z,4.28
2019-03-21T01:54:10.583Z,4.15
2019-03-21T01:56:40.484Z,4.15
2019-03-21T01:59:09.390Z,4.60
2019-03-21T02:01:38.307Z,4.80
2019-03-21T02:04:07.219Z,4.47
2019-03-21T02:06:36.137Z,4.60
2019-03-21T02:09:06.192Z,4.20
2019-03-21T02:11:35.083Z,5.03
2019-03-21T02:14:03.996Z,6.25
2019-03-21T02:16:32.926Z,6.42
2019-03-21T02:19:01.864Z,6.95
2019-03-21T02:21:30.695Z,6.60
2019-03-21T02:23:59.549Z,7.05
2019-03-21T02:26:28.441Z,6.53
2019-03-21T02:28:57.285Z,6.67
2019-03-21T02:31:26.128Z,6.45
2019-03-21T02:33:55.071Z,7.08
2019-03-21T02:36:23.970Z,6.80
2019-03-21T02:38:52.910Z,6.78
2019-03-21T02:41:25.223Z,6.28
2019-03-21T02:43:52.573Z,5.80
2019-03-21T02:46:21.448Z,4.70
2019-03-21T02:48:50.381Z,5.30
2019-03-21T02:51:19.548Z,6.05
2019-03-21T02:53:48.456Z,6.12
2019-03-21T02:56:19.247Z,6.40
2019-03-21T02:58:48.305Z,6.12
2019-03-21T03:01:17.164Z,6.50
2019-03-21T03:03:46.068Z,5.50
2019-03-21T03:06:14.982Z,5.72
2019-03-21T03:08:43.828Z,5.40
2019-03-21T03:11:14.391Z,5.75
2019-03-21T03:13:45.075Z,5.60
2019-03-21T03:16:14.065Z,6.20
2019-03-21T03:18:43.026Z,5.85
2019-03-21T03:21:11.910Z,5.85
2019-03-21T03:23:40.864Z,5.95
2019-03-21T03:26:09.710Z,6.25
2019-03-21T03:28:42.884Z,5.85
2019-03-21T03:31:11.753Z,5.67
2019-03-21T03:33:40.675Z,6.00
2019-03-21T03:36:09.974Z,6.33
2019-03-21T03:38:38.881Z,6.53
2019-03-21T03:41:15.214Z,6.83
2019-03-21T03:43:44.192Z,7.08
2019-03-21T03:46:13.128Z,7.12
2019-03-21T03:48:42.120Z,7.10
2019-03-21T03:51:11.034Z,7.50
2019-03-21T03:53:42.498Z,7.17
2019-03-21T03:56:10.549Z,6.90
2019-03-21T03:58:41.037Z,6.78
2019-03-21T04:01:09.939Z,6.97
2019-03-21T04:03:38.846Z,6.67
2019-03-21T04:06:07.745Z,6.83
2019-03-21T04:08:36.594Z,7.28
2019-03-21T04:11:05.500Z,8.05
2019-03-21T04:13:34.431Z,7.55
2019-03-21T04:16:03.270Z,7.45
2019-03-21T04:18:32.287Z,7.12
2019-03-21T04:21:11.786Z,6.95
2019-03-21T04:23:40.720Z,7.35
2019-03-21T04:26:11.174Z,7.55
2019-03-21T04:28:40.584Z,7.35
2019-03-21T04:31:09.590Z,6.72
2019-03-21T04:33:38.652Z,7.10
2019-03-21T04:36:07.503Z,7.50
2019-03-21T04:38:36.473Z,6.75
2019-03-21T04:41:05.401Z,6.75
2019-03-21T04:43:34.304Z,7.42
2019-03-21T04:46:04.009Z,6.70
2019-03-21T04:48:33.039Z,6.97
2019-03-21T04:51:01.902Z,7.20
2019-03-21T04:53:30.849Z,6.97
2019-03-21T04:55:59.769Z,6.75
2019-03-21T04:58:28.617Z,6.67
2019-03-21T05:00:57.998Z,6.58
2019-03-21T05:03:27.608Z,7.22
2019-03-21T05:05:56.527Z,7.17
2019-03-21T05:08:25.502Z,7.53
2019-03-21T05:10:54.396Z,7.37
2019-03-21T05:13:23.254Z,7.45
2019-03-21T05:15:52.952Z,6.75
2019-03-21T05:18:23.433Z,6.83
2019-03-21T05:20:52.301Z,7.00
2019-03-21T05:23:21.585Z,7.33
2019-03-21T05:25:50.590Z,7.10
2019-03-21T05:28:19.604Z,7.00
2019-03-21T05:30:51.247Z,6.87
2019-03-21T05:33:20.163Z,7.03
2019-03-21T05:35:49.019Z,6.85
2019-03-21T05:38:19.063Z,6.62
2019-03-21T05:40:48.005Z,6.65
2019-03-21T05:43:21.406Z,6.50
2019-03-21T05:45:50.428Z,6.25
2019-03-21T05:48:19.322Z,6.62
2019-03-21T05:50:50.706Z,6.22
2019-03-21T05:53:21.225Z,5.95
2019-03-21T05:55:51.219Z,6.17
2019-03-21T05:58:20.321Z,6.10
2019-03-21T06:00:56.646Z,6.50
2019-03-21T06:03:27.117Z,6.15
2019-03-21T06:05:57.683Z,5.65
2019-03-21T06:08:28.286Z,6.50
2019-03-21T06:10:58.163Z,5.65
2019-03-21T06:13:27.153Z,5.08
2019-03-21T06:15:57.761Z,5.53
2019-03-21T06:18:31.189Z,5.60
2019-03-21T06:21:01.913Z,5.60
2019-03-21T06:23:32.517Z,5.15
2019-03-21T06:26:05.822Z,5.22
2019-03-21T06:28:34.637Z,4.95
2019-03-21T06:31:03.525Z,5.35
2019-03-21T06:33:32.450Z,5.05
2019-03-21T06:36:01.349Z,5.60
2019-03-21T06:38:30.188Z,4.87
2019-03-21T06:40:59.108Z,5.30
2019-03-21T06:43:28.002Z,4.80
2019-03-21T06:45:56.884Z,4.72
2019-03-21T06:48:25.792Z,4.85
2019-03-21T06:50:54.685Z,5.45
2019-03-21T06:53:23.531Z,4.70
2019-03-21T06:55:52.358Z,5.30
2019-03-21T06:58:21.210Z,4.05
2019-03-21T07:00:50.046Z,3.77
2019-03-21T07:03:18.973Z,3.90
2019-03-21T07:05:47.992Z,4.00
2019-03-21T07:08:16.880Z,3.77
2019-03-21T07:10:45.739Z,3.20
2019-03-21T07:13:14.571Z,4.20
2019-03-21T07:15:43.499Z,4.20
2019-03-21T07:18:12.334Z,4.05
2019-03-21T07:20:41.194Z,4.25
2019-03-21T07:23:10.081Z,4.30
2019-03-21T07:25:38.916Z,4.50
2019-03-21T07:28:07.752Z,5.42
2019-03-21T07:30:37.686Z,4.90
2019-03-21T07:33:06.583Z,4.72
2019-03-21T07:35:35.431Z,4.78
2019-03-21T07:38:04.324Z,4.50
2019-03-21T07:40:33.688Z,4.80
2019-03-21T07:43:02.507Z,6.60
2019-03-21T07:45:31.385Z,8.70
2019-03-21T07:48:00.285Z,10.28
2019-03-21T07:50:30.368Z,9.35
2019-03-21T07:52:59.294Z,9.00
2019-03-21T07:55:28.129Z,9.75
2019-03-21T07:57:59.337Z,9.83
2019-03-21T08:00:27.489Z,8.55
2019-03-21T08:02:56.421Z,9.03
2019-03-21T08:05:25.252Z,8.75
2019-03-21T08:07:54.101Z,9.33
2019-03-21T08:10:23.015Z,8.93
2019-03-21T08:12:51.921Z,8.88
2019-03-21T08:15:20.847Z,9.13
2019-03-21T08:17:49.835Z,8.40
2019-03-21T08:20:18.669Z,8.23
2019-03-21T08:22:47.571Z,8.60
2019-03-21T08:25:16.422Z,8.38
2019-03-21T08:27:45.273Z,9.10
2019-03-21T08:30:21.679Z,8.23
2019-03-21T08:32:50.506Z,8.95
2019-03-21T08:35:19.416Z,8.23
2019-03-21T08:37:48.334Z,7.87
2019-03-21T08:40:17.230Z,7.30
2019-03-21T08:42:46.136Z,6.60
2019-03-21T08:45:14.994Z,7.20
2019-03-21T08:47:43.847Z,6.67
2019-03-21T08:50:12.680Z,6.95
2019-03-21T08:52:41.600Z,6.10
2019-03-21T08:55:10.422Z,6.28
2019-03-21T08:57:39.284Z,6.25
2019-03-21T09:00:09.741Z,5.97
2019-03-21T09:02:38.577Z,6.10
2019-03-21T09:05:07.425Z,6.65
2019-03-21T09:07:36.353Z,7.08
2019-03-21T09:10:07.910Z,6.37
2019-03-21T09:12:36.379Z,6.67
2019-03-21T09:15:08.884Z,6.72
2019-03-21T09:17:37.872Z,6.12
2019-03-21T09:20:07.166Z,6.17
2019-03-21T09:22:35.995Z,5.97
2019-03-21T09:25:07.513Z,5.80
2019-03-21T09:27:36.330Z,6.22
2019-03-21T09:30:06.882Z,6.22
2019-03-21T09:32:35.870Z,5.62
2019-03-21T09:35:06.207Z,5.33
2019-03-21T09:37:35.043Z,5.12
2019-03-21T09:40:07.399Z,5.72
2019-03-21T09:42:37.377Z,5.25
2019-03-21T09:45:08.946Z,5.00
2019-03-21T09:47:37.849Z,5.35
2019-03-21T09:50:07.163Z,4.75
2019-03-21T09:52:36.013Z,5.03
2019-03-21T09:55:08.087Z,5.33
2019-03-21T09:57:37.009Z,5.42
2019-03-21T10:00:06.624Z,5.65
2019-03-21T10:02:35.538Z,5.62
2019-03-21T10:05:05.941Z,5.90
2019-03-21T10:07:34.865Z,5.92
2019-03-21T10:10:05.391Z,6.30
2019-03-21T10:12:35.347Z,6.47
2019-03-21T10:15:05.441Z,6.55
2019-03-21T10:17:34.282Z,5.95
2019-03-21T10:20:05.001Z,6.58
2019-03-21T10:22:33.973Z,6.62
2019-03-21T10:25:02.806Z,6.15
2019-03-21T10:27:31.645Z,6.28
2019-03-21T10:30:00.474Z,5.67
2019-03-21T10:32:29.317Z,5.70
2019-03-21T10:34:58.217Z,5.70
2019-03-21T10:37:27.049Z,5.20
2019-03-21T10:39:55.903Z,5.00
2019-03-21T10:42:24.886Z,5.03
2019-03-21T10:44:53.767Z,5.08
2019-03-21T10:47:22.603Z,10.80
2019-03-21T10:49:51.462Z,5.33
2019-03-21T10:52:20.498Z,5.65
2019-03-21T10:54:49.401Z,5.12
2019-03-21T10:57:18.224Z,5.75
2019-03-21T10:59:47.141Z,5.30
2019-03-21T11:02:16.009Z,6.03
2019-03-21T11:04:44.846Z,5.78
2019-03-21T11:07:13.328Z,6.25
2019-03-21T11:09:42.155Z,5.97
2019-03-21T11:12:11.000Z,5.92
2019-03-21T11:14:39.903Z,6.53
2019-03-21T11:17:08.751Z,6.25
2019-03-21T11:19:37.651Z,6.40
2019-03-21T11:22:06.842Z,6.87
2019-03-21T11:24:35.807Z,5.78
2019-03-21T11:27:04.717Z,5.58
2019-03-21T11:29:33.551Z,6.30
2019-03-21T11:32:02.410Z,6.08
2019-03-21T11:34:31.245Z,6.33
2019-03-21T11:37:00.163Z,6.47
2019-03-21T11:39:30.128Z,6.10
2019-03-21T11:41:59.092Z,6.92
2019-03-21T11:44:27.951Z,6.70
2019-03-21T11:46:56.859Z,6.50
2019-03-21T11:49:25.774Z,6.85
2019-03-21T11:51:54.657Z,6.97
2019-03-21T11:54:23.663Z,7.05
2019-03-21T11:56:52.511Z,6.50
2019-03-21T11:59:21.349Z,6.90
2019-03-21T12:01:50.339Z,6.80
2019-03-21T12:04:19.162Z,6.80
2019-03-21T12:06:48.023Z,7.47
2019-03-21T12:09:16.875Z,6.90
2019-03-21T12:11:45.778Z,7.42
2019-03-21T12:14:14.817Z,7.22
2019-03-21T12:16:43.681Z,7.10
2019-03-21T12:19:12.601Z,7.80
2019-03-21T12:21:41.494Z,7.35
2019-03-21T12:24:11.415Z,7.33
2019-03-21T12:26:40.400Z,7.53
2019-03-21T12:29:09.321Z,7.85
2019-03-21T12:31:38.313Z,7.37
2019-03-21T12:34:07.331Z,7.55
2019-03-21T12:36:36.221Z,7.72
2019-03-21T12:39:06.135Z,7.80
2019-03-21T12:41:34.956Z,8.10
2019-03-21T12:44:03.826Z,8.45
2019-03-21T12:46:32.668Z,8.28
2019-03-21T12:49:01.589Z,7.80
2019-03-21T12:51:30.515Z,8.13
2019-03-21T12:53:59.434Z,8.53
2019-03-21T12:56:28.295Z,8.23
2019-03-21T12:58:57.128Z,9.03
2019-03-21T13:01:26.044Z,8.13
2019-03-21T13:03:54.883Z,8.15
2019-03-21T13:06:23.737Z,8.40
2019-03-21T13:08:52.571Z,8.98
2019-03-21T13:11:21.421Z,8.40
2019-03-21T13:13:50.268Z,8.98
2019-03-21T13:16:19.195Z,8.88
2019-03-21T13:18:48.044Z,8.70
2019-03-21T13:21:16.966Z,9.40
2019-03-21T13:23:45.873Z,9.23
2019-03-21T13:26:14.728Z,9.25
2019-03-21T13:28:43.657Z,8.43
2019-03-21T13:31:13.849Z,9.65
2019-03-21T13:33:47.468Z,8.98
2019-03-21T13:36:16.387Z,8.65
2019-03-21T13:38:45.302Z,9.13
2019-03-21T13:41:14.215Z,9.48
2019-03-21T13:43:43.155Z,9.48
2019-03-21T13:46:12.092Z,9.50
2019-03-21T13:48:40.994Z,10.20
2019-03-21T13:51:09.916Z,10.78
2019-03-21T13:53:38.963Z,9.60
2019-03-21T13:56:08.031Z,10.32
2019-03-21T13:58:36.938Z,9.63
2019-03-21T14:01:05.940Z,9.50
2019-03-21T14:03:34.859Z,9.90
2019-03-21T14:06:03.693Z,9.38
2019-03-21T14:08:32.576Z,10.00
2019-03-21T14:11:02.556Z,10.08
2019-03-21T14:13:31.402Z,9.40
2019-03-21T14:16:00.280Z,10.18
2019-03-21T14:18:29.164Z,10.03
2019-03-21T14:20:58.128Z,10.43
2019-03-21T14:23:27.131Z,10.25
2019-03-21T14:25:55.962Z,9.78
2019-03-21T14:28:24.806Z,9.70
2019-03-21T14:30:53.636Z,10.10
2019-03-21T14:33:22.481Z,9.80
2019-03-21T14:35:51.321Z,10.32
2019-03-21T14:38:26.147Z,10.05
2019-03-21T14:40:50.904Z,10.20
2019-03-21T14:43:19.761Z,10.60
2019-03-21T14:45:48.682Z,11.05
2019-03-21T14:48:17.594Z,10.95
2019-03-21T14:50:46.544Z,10.35
2019-03-21T14:53:15.451Z,10.32
2019-03-21T14:55:47.760Z,11.08
2019-03-21T14:58:16.120Z,10.95
2019-03-21T15:00:44.963Z,11.00
2019-03-21T15:03:15.430Z,10.72
2019-03-21T15:05:44.320Z,11.30
2019-03-21T15:08:13.434Z,11.28
2019-03-21T15:10:42.378Z,10.40
2019-03-21T15:13:11.388Z,11.22
2019-03-21T15:15:40.306Z,11.20
2019-03-21T15:18:09.245Z,11.22
2019-03-21T15:20:38.187Z,12.23
2019-03-21T15:23:07.226Z,10.80
2019-03-21T15:25:36.337Z,10.85
2019-03-21T15:28:05.422Z,11.10
2019-03-21T15:30:34.332Z,10.88
2019-03-21T15:33:03.234Z,11.50
2019-03-21T15:35:32.250Z,11.03
2019-03-21T15:38:01.169Z,10.78
2019-03-21T15:40:30.207Z,11.53
2019-03-21T15:42:59.142Z,12.00
2019-03-21T15:45:28.063Z,12.40
2019-03-21T15:47:56.913Z,11.53
2019-03-21T15:50:29.706Z,11.50
2019-03-21T15:52:58.536Z,11.10
2019-03-21T15:55:27.424Z,11.33
2019-03-21T15:57:56.495Z,11.25
2019-03-21T16:00:36.316Z,11.55
2019-03-21T16:03:05.965Z,10.82
2019-03-21T16:05:35.205Z,11.18
2019-03-21T16:08:04.506Z,11.78
2019-03-21T16:10:33.733Z,12.13
2019-03-21T16:13:02.689Z,11.95
2019-03-21T16:15:31.622Z,11.50
2019-03-21T16:18:00.668Z,11.63
2019-03-21T16:20:29.619Z,11.80
2019-03-21T16:22:58.573Z,11.75
2019-03-21T16:25:27.500Z,11.97
2019-03-21T16:27:56.477Z,11.93
2019-03-21T16:30:25.460Z,12.88
2019-03-21T16:32:54.424Z,12.55
2019-03-21T16:35:23.273Z,12.43
2019-03-21T16:37:52.313Z,11.93
2019-03-21T16:40:21.200Z,12.73
2019-03-21T16:42:50.091Z,12.53
2019-03-21T16:45:21.110Z,13.68
2019-03-21T16:47:49.724Z,14.00
2019-03-21T16:50:18.584Z,12.98
2019-03-21T16:52:47.473Z,12.70
2019-03-21T16:55:16.389Z,13.83
2019-03-21T16:57:45.230Z,13.32
2019-03-21T17:00:17.596Z,13.53
2019-03-21T17:02:45.929Z,14.23
2019-03-21T17:05:14.879Z,14.07
2019-03-21T17:07:43.719Z,13.78
2019-03-21T17:10:13.301Z,14.18
2019-03-21T17:12:42.301Z,13.15
2019-03-21T17:15:11.556Z,13.60
2019-03-21T17:17:40.540Z,13.10
2019-03-21T17:20:10.551Z,13.65
2019-03-21T17:22:39.484Z,14.20
2019-03-21T17:25:08.329Z,12.68
2019-03-21T17:27:37.323Z,17.82
2019-03-21T17:30:07.030Z,16.30
2019-03-21T17:32:35.965Z,16.10
2019-03-21T17:35:05.595Z,16.35
2019-03-21T17:37:34.624Z,16.17
2019-03-21T17:40:05.254Z,14.35
2019-03-21T17:42:34.152Z,14.80
2019-03-21T17:45:07.156Z,14.70
2019-03-21T17:47:36.572Z,14.05
2019-03-21T17:50:06.109Z,14.07
2019-03-21T17:52:35.083Z,13.72
2019-03-21T17:55:05.050Z,13.48
2019-03-21T17:57:34.928Z,14.15
2019-03-21T18:00:11.646Z,14.10
2019-03-21T18:02:40.597Z,14.63
2019-03-21T18:05:09.589Z,14.68
2019-03-21T18:07:38.499Z,14.98
2019-03-21T18:10:08.980Z,14.83
2019-03-21T18:12:37.928Z,15.78
2019-03-21T18:15:06.917Z,15.83
2019-03-21T18:17:35.836Z,15.40
2019-03-21T18:20:05.778Z,16.27
2019-03-21T18:22:34.815Z,16.15
2019-03-21T18:25:04.955Z,16.25
2019-03-21T18:27:33.933Z,16.80
2019-03-21T18:30:03.533Z,16.30
2019-03-21T18:32:32.878Z,17.15
2019-03-21T18:35:01.784Z,17.35
2019-03-21T18:37:30.720Z,17.20
2019-03-21T18:39:59.823Z,17.37
2019-03-21T18:42:28.790Z,17.82
2019-03-21T18:44:57.708Z,19.25
2019-03-21T18:47:26.575Z,17.90
2019-03-21T18:49:55.739Z,18.45
2019-03-21T18:52:24.692Z,17.98
2019-03-21T18:55:05.380Z,17.52
2019-03-21T18:57:24.204Z,19.45
2019-03-21T18:59:53.123Z,18.70
2019-03-21T19:02:21.987Z,19.45
2019-03-21T19:04:50.916Z,20.10
2019-03-21T19:07:19.842Z,19.48
2019-03-21T19:09:48.814Z,20.15
2019-03-21T19:12:17.747Z,21.17
2019-03-21T19:14:46.674Z,20.37
2019-03-21T19:17:15.547Z,19.67
2019-03-21T19:19:44.470Z,20.35
2019-03-21T19:22:13.391Z,20.65
2019-03-21T19:24:42.411Z,19.92
2019-03-21T19:27:11.282Z,19.67
2019-03-21T19:29:40.516Z,20.08
2019-03-21T19:32:09.394Z,20.00
2019-03-21T19:34:38.269Z,20.72
2019-03-21T19:37:07.134Z,19.62
2019-03-21T19:39:36.143Z,21.42
2019-03-21T19:42:05.636Z,20.08
2019-03-21T19:45:00.364Z,19.52
2019-03-21T19:47:30.532Z,19.37
2019-03-21T19:49:59.616Z,20.30
2019-03-21T19:52:28.579Z,19.87
2019-03-21T19:54:57.549Z,19.77
2019-03-21T19:57:26.516Z,20.68
2019-03-21T19:59:55.558Z,20.37
2019-03-21T20:02:25.546Z,20.92
2019-03-21T20:04:54.589Z,20.82
2019-03-21T20:07:23.791Z,19.67
2019-03-21T20:09:52.824Z,19.82
2019-03-21T20:12:21.978Z,19.23
2019-03-21T20:14:51.107Z,19.02
2019-03-21T20:17:20.022Z,19.02
2019-03-21T20:19:48.946Z,19.17
2019-03-21T20:22:17.939Z,19.82
2019-03-21T20:24:47.072Z,19.02
2019-03-21T20:27:17.110Z,19.52
2019-03-21T20:29:46.076Z,18.80
2019-03-21T20:32:20.773Z,19.10
2019-03-21T20:34:47.317Z,19.00
2019-03-21T20:37:16.158Z,17.90
2019-03-21T20:39:46.100Z,18.42
2019-03-21T20:42:15.141Z,19.55
2019-03-21T20:59:04.589Z,19.05
2019-03-21T21:01:33.664Z,19.77
2019-03-21T21:04:02.643Z,19.55
2019-03-21T21:06:31.536Z,19.27
2019-03-21T21:09:00.597Z,17.55
2019-03-21T21:11:30.751Z,18.07
2019-03-21T21:13:59.913Z,18.60
2019-03-21T21:16:28.838Z,18.15
2019-03-21T21:18:57.774Z,18.25
2019-03-21T21:21:26.713Z,19.30
2019-03-21T21:23:55.700Z,17.85
2019-03-21T21:26:24.721Z,17.87
2019-03-21T21:28:53.665Z,18.05
2019-03-21T21:31:22.681Z,18.50
2019-03-21T21:33:51.669Z,18.32
2019-03-21T21:36:22.121Z,17.98
2019-03-21T21:38:51.359Z,18.32
2019-03-21T21:41:20.220Z,17.98
2019-03-21T21:43:49.234Z,18.50
2019-03-21T21:46:18.101Z,17.75
2019-03-21T21:48:47.077Z,18.25
2019-03-21T21:51:16.000Z,17.55
2019-03-21T21:53:44.908Z,17.02
